Time;durP1;ratioP1;P1;durP2;ratioP2;P2;SDS_P1;SDS_P2;PMS_P1;PMS_P2;Temp;Humidity;BMP_temperature;BMP_pressure;BME280_temperature;BME280_humidity;BME280_pressure;Samples;Min_cycle;Max_cycle;Signal;HPM_P1;HPM_P2
2021/05/27 00:00:11;;;;;;;11.77;7.20;;;15.70;99.90;;;;;;4860881;29;20028;-75
2021/05/27 00:02:37;;;;;;;9.88;7.13;;;15.80;99.90;;;;;;4860756;29;20436;-75
2021/05/27 00:05:05;;;;;;;14.52;7.60;;;15.80;99.90;;;;;;4877480;29;20031;-75
2021/05/27 00:07:30;;;;;;;12.40;7.40;;;15.80;99.90;;;;;;4877664;29;20029;-75
2021/05/27 00:09:56;;;;;;;11.93;7.50;;;15.90;99.90;;;;;;4860684;29;20028;-75
2021/05/27 00:12:22;;;;;;;13.02;8.07;;;15.80;99.90;;;;;;4877414;29;20065;-75
2021/05/27 00:14:51;;;;;;;14.30;7.70;;;15.80;99.90;;;;;;4877687;29;20021;-75
2021/05/27 00:17:17;;;;;;;12.93;7.25;;;15.90;99.90;;;;;;4860907;29;20033;-75
2021/05/27 00:19:43;;;;;;;10.95;7.45;;;15.90;99.90;;;;;;4877366;29;20056;-75
2021/05/27 00:22:09;;;;;;;10.50;7.32;;;15.90;99.90;;;;;;4877459;29;20403;-75
2021/05/27 00:24:36;;;;;;;8.88;7.53;;;15.90;99.90;;;;;;4861393;29;20035;-75
2021/05/27 00:27:03;;;;;;;10.40;7.80;;;15.90;99.90;;;;;;4863961;29;20298;-75
2021/05/27 00:29:29;;;;;;;14.32;7.50;;;15.80;99.90;;;;;;4880985;29;20029;-75
2021/05/27 00:31:55;;;;;;;12.27;7.53;;;15.80;99.90;;;;;;4881199;29;20077;-75
2021/05/27 00:34:21;;;;;;;13.98;7.45;;;15.90;99.90;;;;;;4880649;29;20029;-75
2021/05/27 00:36:47;;;;;;;7.90;7.07;;;15.80;99.90;;;;;;4863860;29;20081;-75
2021/05/27 00:39:12;;;;;;;9.57;7.28;;;15.80;99.90;;;;;;4864027;29;20037;-75
2021/05/27 00:41:38;;;;;;;11.88;8.00;;;15.80;99.90;;;;;;4880509;29;20056;-75
2021/05/27 00:44:28;;;;;;;13.50;7.07;;;15.80;99.90;;;;;;4880650;29;20104;-75
2021/05/27 00:46:55;;;;;;;12.68;7.65;;;15.70;99.90;;;;;;4880564;29;20029;-75
2021/05/27 00:49:22;;;;;;;10.80;7.57;;;15.70;99.90;;;;;;4880633;29;20433;-75
2021/05/27 00:51:49;;;;;;;13.50;8.75;;;15.70;99.90;;;;;;4880551;29;20028;-75
2021/05/27 00:54:16;;;;;;;11.90;7.53;;;15.80;99.90;;;;;;4879179;29;20029;-75
2021/05/27 00:56:47;;;;;;;15.75;7.43;;;15.70;99.90;;;;;;4863637;29;20373;-75
2021/05/27 00:59:13;;;;;;;12.60;7.88;;;15.80;99.90;;;;;;4880343;29;20025;-75
2021/05/27 01:01:38;;;;;;;13.05;8.35;;;15.80;99.90;;;;;;4880480;29;20045;-75
2021/05/27 01:04:04;;;;;;;15.23;8.55;;;15.80;99.90;;;;;;4880092;29;20453;-75
2021/05/27 01:06:30;;;;;;;10.63;7.45;;;15.80;99.90;;;;;;4877116;29;20396;-75
2021/05/27 01:08:56;;;;;;;14.65;8.00;;;15.80;99.90;;;;;;4880321;29;20028;-75
2021/05/27 01:11:23;;;;;;;9.88;7.50;;;15.80;99.90;;;;;;4880142;29;20037;-75
2021/05/27 01:13:49;;;;;;;14.35;7.85;;;15.70;99.90;;;;;;4863190;29;20399;-75
2021/05/27 01:16:18;;;;;;;10.68;7.90;;;15.70;99.90;;;;;;4863379;29;20033;-75
2021/05/27 01:18:44;;;;;;;17.23;8.38;;;15.70;99.90;;;;;;4863093;29;20056;-75
2021/05/27 01:21:10;;;;;;;11.32;8.23;;;15.60;99.90;;;;;;4863175;29;20031;-75
2021/05/27 01:23:37;;;;;;;17.55;9.20;;;15.50;99.90;;;;;;4879826;29;20107;-75
2021/05/27 01:26:05;;;;;;;14.25;7.97;;;15.40;99.90;;;;;;4879760;29;20045;-75
2021/05/27 01:28:34;;;;;;;14.73;8.95;;;15.40;99.90;;;;;;4879875;29;20461;-75
2021/05/27 01:31:06;;;;;;;13.98;8.93;;;15.40;99.90;;;;;;4862997;29;20379;-75
2021/05/27 01:33:32;;;;;;;13.93;9.52;;;15.50;99.90;;;;;;4879673;29;20053;-76
2021/05/27 01:35:59;;;;;;;10.93;8.20;;;15.50;99.90;;;;;;4879612;29;20025;-76
2021/05/27 01:38:27;;;;;;;15.07;8.90;;;15.50;99.90;;;;;;4879881;29;20061;-73
2021/05/27 01:40:56;;;;;;;17.65;9.75;;;15.40;99.90;;;;;;4879743;29;20099;-75
2021/05/27 01:43:22;;;;;;;15.80;9.82;;;15.40;99.90;;;;;;4862724;29;20132;-75
2021/05/27 01:45:48;;;;;;;17.35;9.25;;;15.50;99.90;;;;;;4862706;29;20113;-75
2021/05/27 01:48:15;;;;;;;15.15;8.55;;;15.40;99.90;;;;;;4879646;29;20048;-75
2021/05/27 01:50:46;;;;;;;15.00;10.10;;;15.40;99.90;;;;;;4879424;29;20376;-75
2021/05/27 01:53:13;;;;;;;12.85;9.00;;;15.50;99.90;;;;;;4879303;29;20025;-75
2021/05/27 01:55:47;;;;;;;13.40;8.82;;;15.50;99.90;;;;;;4879111;29;20068;-75
2021/05/27 01:58:15;;;;;;;12.85;8.73;;;15.50;99.90;;;;;;4879229;29;20051;-75
2021/05/27 02:00:41;;;;;;;16.40;9.80;;;15.50;99.90;;;;;;4879196;29;20029;-75
2021/05/27 02:03:07;;;;;;;13.13;10.00;;;15.50;99.90;;;;;;4862520;29;20177;-75
2021/05/27 02:05:33;;;;;;;12.77;9.55;;;15.50;99.90;;;;;;4879028;29;20064;-75
2021/05/27 02:07:59;;;;;;;18.48;9.35;;;15.40;99.90;;;;;;4879087;29;20075;-75
2021/05/27 02:10:25;;;;;;;12.38;9.38;;;15.40;99.90;;;;;;4862437;29;20597;-75
2021/05/27 02:12:50;;;;;;;12.85;9.40;;;15.30;99.90;;;;;;4878815;29;20480;-75
2021/05/27 02:15:16;;;;;;;14.07;9.32;;;15.30;99.90;;;;;;4879013;29;20044;-75
2021/05/27 02:17:42;;;;;;;17.95;11.20;;;15.30;99.90;;;;;;4879175;29;20033;-75
2021/05/27 02:20:09;;;;;;;13.07;10.35;;;15.30;99.90;;;;;;4878888;29;20032;-75
2021/05/27 02:22:35;;;;;;;17.35;10.15;;;15.30;99.90;;;;;;4878684;29;20029;-75
2021/05/27 02:25:02;;;;;;;15.35;10.30;;;15.30;99.90;;;;;;4878799;29;20033;-75
2021/05/27 02:27:29;;;;;;;15.15;11.25;;;15.30;99.90;;;;;;4878452;29;20076;-75
2021/05/27 02:29:55;;;;;;;17.98;10.77;;;15.30;99.90;;;;;;4861960;29;20017;-75
2021/05/27 02:32:20;;;;;;;15.65;11.57;;;15.30;99.90;;;;;;4862010;29;20085;-75
2021/05/27 02:34:46;;;;;;;14.70;10.43;;;15.20;99.90;;;;;;4878756;29;20100;-75
2021/05/27 02:37:12;;;;;;;16.42;10.77;;;15.20;99.90;;;;;;4878492;29;20036;-75
2021/05/27 02:39:38;;;;;;;17.92;11.35;;;15.10;99.90;;;;;;4878658;29;20426;-75
2021/05/27 02:42:04;;;;;;;18.85;11.18;;;15.10;99.90;;;;;;4861628;29;20033;-75
2021/05/27 02:44:30;;;;;;;17.55;10.77;;;15.00;99.90;;;;;;4878351;29;20029;-75
2021/05/27 02:46:56;;;;;;;19.52;11.13;;;15.10;99.90;;;;;;4878092;29;20523;-75
2021/05/27 02:49:21;;;;;;;20.67;10.75;;;15.00;99.90;;;;;;4878218;29;20369;-75
2021/05/27 02:51:47;;;;;;;22.38;11.77;;;15.10;99.90;;;;;;4878364;29;20026;-75
2021/05/27 02:54:14;;;;;;;15.68;10.70;;;15.00;99.90;;;;;;4878336;29;20021;-75
2021/05/27 02:56:40;;;;;;;15.98;11.10;;;15.10;99.90;;;;;;4878182;29;20033;-75
2021/05/27 02:59:06;;;;;;;16.70;11.40;;;15.00;99.90;;;;;;4861493;29;20111;-75
2021/05/27 03:01:32;;;;;;;20.45;11.48;;;15.00;99.90;;;;;;4878300;29;20029;-75
2021/05/27 03:03:58;;;;;;;16.70;10.70;;;15.00;99.90;;;;;;4878019;29;20029;-75
2021/05/27 03:06:24;;;;;;;28.20;12.05;;;14.90;99.90;;;;;;4861312;29;20033;-75
2021/05/27 03:08:49;;;;;;;20.27;11.85;;;14.90;99.90;;;;;;4878244;29;20025;-75
2021/05/27 03:11:18;;;;;;;18.55;12.07;;;15.00;99.90;;;;;;4875881;29;20036;-75
2021/05/27 03:13:44;;;;;;;20.10;11.93;;;15.00;99.90;;;;;;4859372;29;20022;-75
2021/05/27 03:16:10;;;;;;;19.83;12.18;;;15.00;99.90;;;;;;4859624;29;20025;-75
2021/05/27 03:18:35;;;;;;;22.20;11.82;;;15.00;99.90;;;;;;4842895;29;20052;-75
2021/05/27 03:21:03;;;;;;;21.88;11.57;;;15.10;99.90;;;;;;4842905;29;20037;-76
2021/05/27 03:23:29;;;;;;;21.58;12.23;;;15.00;99.90;;;;;;4859341;29;20037;-75
2021/05/27 03:25:55;;;;;;;21.10;12.30;;;15.00;99.90;;;;;;4869090;29;20544;-75
2021/05/27 03:28:22;;;;;;;19.98;11.95;;;15.00;99.90;;;;;;4861148;29;20389;-75
2021/05/27 03:30:48;;;;;;;18.42;11.45;;;15.00;99.90;;;;;;4861186;29;20128;-75
2021/05/27 03:33:14;;;;;;;23.08;12.07;;;15.00;99.90;;;;;;4877680;29;20104;-75
2021/05/27 03:35:40;;;;;;;21.77;11.43;;;15.00;99.90;;;;;;4877781;29;20056;-75
2021/05/27 03:38:06;;;;;;;23.08;12.45;;;15.00;99.90;;;;;;4877747;29;20036;-75
2021/05/27 03:40:32;;;;;;;19.05;11.50;;;15.00;99.90;;;;;;4877860;29;20062;-75
2021/05/27 03:42:58;;;;;;;22.65;11.95;;;14.90;99.90;;;;;;4877434;29;20170;-75
2021/05/27 03:45:30;;;;;;;18.52;11.60;;;15.00;99.90;;;;;;4877732;29;20036;-75
2021/05/27 03:47:56;;;;;;;20.75;12.55;;;15.00;99.90;;;;;;4860974;29;20021;-75
2021/05/27 03:50:28;;;;;;;22.52;11.50;;;15.00;99.90;;;;;;4877800;29;20037;-75
2021/05/27 03:52:54;;;;;;;19.87;12.60;;;15.00;99.90;;;;;;4877496;29;20033;-75
2021/05/27 03:55:22;;;;;;;18.58;12.25;;;15.00;99.90;;;;;;4860859;29;20093;-75
2021/05/27 03:57:51;;;;;;;22.50;12.50;;;14.90;99.90;;;;;;4877587;29;20029;-75
2021/05/27 04:03:05;;;;;;;24.05;11.98;;;14.90;99.90;;;;;;4881309;29;20088;-75
2021/05/27 04:08:15;;;;;;;19.35;12.38;;;14.90;99.90;;;;;;4881342;29;20124;-75
2021/05/27 04:10:41;;;;;;;17.83;11.13;;;14.90;99.90;;;;;;4881128;29;20252;-75
2021/05/27 04:13:06;;;;;;;22.30;12.60;;;14.90;99.90;;;;;;4881203;29;20033;-75
2021/05/27 04:15:34;;;;;;;21.10;11.60;;;14.90;99.90;;;;;;4880925;29;20025;-75
2021/05/27 04:18:10;;;;;;;20.23;12.32;;;15.00;99.90;;;;;;4880973;29;20037;-75
2021/05/27 04:20:37;;;;;;;15.77;11.10;;;15.00;99.90;;;;;;4880980;29;20029;-75
2021/05/27 04:23:05;;;;;;;19.88;11.77;;;15.00;99.90;;;;;;4881032;29;20053;-75
2021/05/27 04:25:31;;;;;;;20.95;12.60;;;14.90;99.90;;;;;;4879455;29;20037;-75
2021/05/27 04:27:59;;;;;;;27.38;12.00;;;15.00;99.90;;;;;;4870576;29;20519;-75
2021/05/27 04:30:29;;;;;;;22.70;11.93;;;15.00;99.90;;;;;;4868213;29;20080;-75
2021/05/27 04:33:07;;;;;;;18.17;11.57;;;15.00;99.90;;;;;;4849831;29;20070;-75
2021/05/27 04:35:39;;;;;;;19.20;11.45;;;15.00;99.90;;;;;;4872162;29;20107;-75
2021/05/27 04:38:13;;;;;;;21.33;11.68;;;15.00;99.90;;;;;;4868919;29;20078;-75
2021/05/27 04:40:44;;;;;;;18.23;10.93;;;15.00;99.90;;;;;;4866454;29;20033;-75
2021/05/27 04:43:16;;;;;;;18.30;11.60;;;15.10;99.90;;;;;;4868716;29;20041;-76
2021/05/27 04:45:42;;;;;;;20.45;12.10;;;15.10;99.90;;;;;;4870381;29;20544;-75
2021/05/27 04:48:12;;;;;;;20.83;12.15;;;15.10;99.90;;;;;;4872579;29;20029;-75
2021/05/27 04:50:43;;;;;;;20.20;12.40;;;15.10;99.90;;;;;;4880486;29;20116;-75
2021/05/27 04:53:10;;;;;;;18.00;11.85;;;15.10;99.90;;;;;;4880371;29;20033;-75
2021/05/27 04:55:36;;;;;;;22.50;11.48;;;15.10;99.90;;;;;;4877145;29;20052;-75
2021/05/27 04:58:03;;;;;;;22.88;11.73;;;15.20;99.90;;;;;;4879980;29;20033;-75
2021/05/27 05:00:29;;;;;;;23.23;12.07;;;15.20;99.90;;;;;;4880459;29;20033;-75
2021/05/27 05:02:56;;;;;;;23.40;12.18;;;15.20;99.90;;;;;;4879265;29;20025;-75
2021/05/27 05:05:24;;;;;;;23.38;12.90;;;15.20;99.90;;;;;;4865208;29;20033;-75
2021/05/27 05:07:50;;;;;;;24.48;12.75;;;15.30;99.90;;;;;;4869817;29;20377;-75
2021/05/27 05:10:17;;;;;;;19.38;11.40;;;15.30;99.90;;;;;;4860891;29;20029;-75
2021/05/27 05:12:47;;;;;;;20.55;12.02;;;15.30;99.90;;;;;;4879665;29;20294;-75
2021/05/27 05:15:17;;;;;;;21.88;12.43;;;15.40;99.90;;;;;;4880206;29;20029;-75
2021/05/27 05:17:46;;;;;;;20.67;12.48;;;15.50;99.90;;;;;;4878905;29;20080;-74
2021/05/27 05:20:12;;;;;;;19.40;12.02;;;15.50;99.90;;;;;;4879914;29;20025;-75
2021/05/27 05:22:38;;;;;;;21.10;12.98;;;15.50;99.90;;;;;;4863357;29;20115;-74
2021/05/27 05:25:04;;;;;;;17.15;11.43;;;15.60;99.90;;;;;;4859645;29;20449;-75
2021/05/27 05:27:30;;;;;;;21.95;11.68;;;15.60;99.90;;;;;;4858426;29;20057;-75
2021/05/27 05:29:56;;;;;;;22.67;11.82;;;15.70;99.90;;;;;;4875005;29;20036;-75
2021/05/27 05:32:21;;;;;;;20.27;12.75;;;15.80;99.90;;;;;;4878990;29;20029;-75
2021/05/27 05:34:47;;;;;;;22.23;12.52;;;15.80;99.90;;;;;;4879666;29;20069;-75
2021/05/27 05:37:13;;;;;;;21.95;12.20;;;15.90;99.90;;;;;;4863041;29;20033;-75
2021/05/27 05:39:38;;;;;;;19.00;11.40;;;15.90;99.90;;;;;;4862944;29;20127;-75
2021/05/27 05:42:04;;;;;;;19.98;12.23;;;16.00;99.90;;;;;;4879877;29;20111;-75
2021/05/27 05:44:33;;;;;;;20.60;11.60;;;16.10;99.90;;;;;;4862790;29;20033;-75
2021/05/27 05:46:59;;;;;;;19.55;11.38;;;16.10;99.90;;;;;;4879258;29;20055;-76
2021/05/27 05:49:25;;;;;;;20.13;12.18;;;16.20;99.90;;;;;;4879549;29;20487;-75
2021/05/27 05:51:51;;;;;;;20.88;11.27;;;16.20;99.90;;;;;;4879308;29;20029;-75
2021/05/27 05:54:16;;;;;;;19.58;10.90;;;16.30;99.90;;;;;;4879380;29;20089;-75
2021/05/27 05:56:42;;;;;;;23.65;11.40;;;16.40;99.90;;;;;;4879519;29;20031;-75
2021/05/27 05:59:08;;;;;;;19.83;11.07;;;16.50;99.90;;;;;;4879132;29;20457;-75
2021/05/27 06:01:33;;;;;;;17.15;10.55;;;16.60;99.90;;;;;;4879320;29;20037;-75
2021/05/27 06:03:59;;;;;;;20.77;12.15;;;16.60;99.90;;;;;;4879182;29;20049;-75
2021/05/27 06:06:25;;;;;;;18.77;11.10;;;16.70;99.90;;;;;;4879063;29;20029;-75
2021/05/27 06:08:51;;;;;;;16.50;11.57;;;16.70;99.90;;;;;;4879225;29;20025;-75
2021/05/27 06:11:18;;;;;;;20.13;10.70;;;16.70;99.90;;;;;;4879122;29;20025;-75
2021/05/27 06:13:44;;;;;;;18.15;10.95;;;16.80;99.90;;;;;;4861888;29;20037;-75
2021/05/27 06:16:10;;;;;;;20.27;12.15;;;16.80;99.90;;;;;;4879386;29;20029;-75
2021/05/27 06:18:35;;;;;;;17.33;10.85;;;16.80;99.90;;;;;;4879189;29;20168;-75
2021/05/27 06:21:01;;;;;;;18.40;10.27;;;16.90;99.90;;;;;;4878995;29;20029;-75
2021/05/27 06:23:27;;;;;;;15.68;9.70;;;16.90;99.90;;;;;;4878131;29;20040;-75
2021/05/27 06:25:53;;;;;;;20.17;9.88;;;17.00;99.90;;;;;;4878486;29;20433;-75
2021/05/27 06:28:19;;;;;;;13.68;9.90;;;17.10;99.90;;;;;;4878908;29;20037;-75
2021/05/27 06:30:44;;;;;;;13.07;9.75;;;17.10;99.90;;;;;;4878730;29;20061;-75
2021/05/27 06:33:10;;;;;;;15.10;8.73;;;17.20;99.90;;;;;;4878686;29;20281;-75
2021/05/27 06:35:37;;;;;;;13.77;8.77;;;17.20;99.90;;;;;;4878764;29;20039;-75
2021/05/27 06:38:03;;;;;;;16.25;9.25;;;17.30;99.90;;;;;;4878733;29;20235;-75
2021/05/27 06:40:29;;;;;;;18.38;9.43;;;17.30;99.90;;;;;;4878747;29;20055;-75
2021/05/27 06:42:55;;;;;;;19.45;9.57;;;17.30;99.90;;;;;;4878330;29;20085;-75
2021/05/27 06:45:23;;;;;;;20.10;9.30;;;17.40;99.90;;;;;;4861894;29;20437;-75
2021/05/27 06:47:49;;;;;;;22.60;9.63;;;17.40;99.90;;;;;;4878272;29;21106;-75
2021/05/27 06:50:31;;;;;;;14.85;8.82;;;17.50;99.90;;;;;;4878570;29;20029;-75
2021/05/27 06:53:01;;;;;;;15.80;9.38;;;17.60;99.90;;;;;;4861678;29;20029;-75
2021/05/27 06:55:27;;;;;;;14.70;8.38;;;17.60;99.90;;;;;;4870672;29;20060;-75
2021/05/27 06:57:53;;;;;;;16.77;8.98;;;17.70;99.90;;;;;;4878249;29;20025;-74
2021/05/27 07:00:20;;;;;;;13.50;9.48;;;17.80;99.90;;;;;;4878265;29;20025;-74
2021/05/27 07:02:51;;;;;;;15.57;8.95;;;17.90;99.90;;;;;;4878071;29;20112;-75
2021/05/27 07:05:17;;;;;;;17.85;8.90;;;17.90;99.90;;;;;;4876923;29;20391;-74
2021/05/27 07:07:43;;;;;;;21.25;9.35;;;18.00;99.90;;;;;;4861194;29;20029;-75
2021/05/27 07:10:09;;;;;;;14.65;8.23;;;18.00;99.90;;;;;;4878187;29;20029;-75
2021/05/27 07:12:35;;;;;;;16.35;8.82;;;18.10;99.90;;;;;;4878120;29;20111;-75
2021/05/27 07:15:02;;;;;;;15.80;8.93;;;18.10;99.90;;;;;;4861228;29;20575;-75
2021/05/27 07:17:27;;;;;;;17.15;9.20;;;18.10;99.90;;;;;;4877937;29;20033;-75
2021/05/27 07:19:54;;;;;;;17.83;9.07;;;18.10;99.90;;;;;;4877975;29;20025;-75
2021/05/27 07:22:20;;;;;;;15.85;9.18;;;18.10;99.90;;;;;;4877811;29;20085;-75
2021/05/27 07:24:47;;;;;;;12.70;8.57;;;18.10;99.90;;;;;;4877823;29;20029;-74
2021/05/27 07:27:13;;;;;;;11.73;9.00;;;18.20;99.90;;;;;;4877676;29;20069;-75
2021/05/27 07:29:39;;;;;;;15.27;8.75;;;18.20;99.90;;;;;;4861070;29;20146;-74
2021/05/27 07:32:06;;;;;;;17.15;8.93;;;18.20;99.90;;;;;;4860972;29;21155;-74
2021/05/27 07:34:32;;;;;;;15.95;10.07;;;18.30;99.90;;;;;;4861013;29;20025;-74
2021/05/27 07:36:58;;;;;;;16.00;9.27;;;18.30;99.90;;;;;;4877782;29;20032;-75
2021/05/27 07:39:24;;;;;;;19.60;10.60;;;18.40;99.90;;;;;;4877656;29;20029;-75
2021/05/27 07:41:50;;;;;;;16.27;9.48;;;18.40;99.90;;;;;;4877709;29;20100;-75
2021/05/27 07:44:16;;;;;;;21.75;10.45;;;18.50;99.90;;;;;;4860929;29;20036;-74
2021/05/27 07:46:42;;;;;;;15.98;10.27;;;18.50;99.90;;;;;;4877631;29;20033;-75
2021/05/27 07:49:07;;;;;;;15.63;9.80;;;18.60;99.90;;;;;;4877783;29;20037;-75
2021/05/27 07:51:34;;;;;;;17.77;10.63;;;18.60;99.90;;;;;;4877475;29;20384;-75
2021/05/27 07:54:00;;;;;;;20.10;10.73;;;18.70;99.90;;;;;;4877607;29;20033;-75
2021/05/27 07:56:26;;;;;;;20.48;10.65;;;18.80;99.90;;;;;;4877490;29;20029;-75
2021/05/27 07:58:52;;;;;;;19.83;11.05;;;18.70;99.90;;;;;;4860778;29;20133;-75
2021/05/27 08:01:18;;;;;;;20.05;11.93;;;18.70;99.90;;;;;;4877630;29;20112;-75
2021/05/27 08:03:43;;;;;;;18.85;11.93;;;18.70;99.90;;;;;;4877374;29;20033;-75
2021/05/27 08:06:09;;;;;;;16.45;11.20;;;18.70;99.90;;;;;;4877236;29;20507;-75
2021/05/27 08:08:35;;;;;;;17.27;10.98;;;18.70;99.90;;;;;;4877574;29;20385;-75
2021/05/27 08:11:01;;;;;;;19.92;11.45;;;18.70;99.90;;;;;;4877262;29;20018;-75
2021/05/27 08:13:26;;;;;;;22.65;10.73;;;18.80;99.90;;;;;;4877571;29;20021;-74
2021/05/27 08:15:52;;;;;;;20.08;11.18;;;18.80;99.90;;;;;;4877338;29;20025;-75
2021/05/27 08:18:18;;;;;;;18.65;10.48;;;19.00;99.90;;;;;;4877448;29;20448;-75
2021/05/27 08:20:44;;;;;;;20.85;11.95;;;19.00;99.90;;;;;;4877268;29;20084;-75
2021/05/27 08:23:09;;;;;;;19.52;10.73;;;19.00;99.90;;;;;;4877086;29;20037;-75
2021/05/27 08:25:35;;;;;;;22.40;12.13;;;19.10;99.90;;;;;;4877315;29;20025;-75
2021/05/27 08:28:01;;;;;;;24.75;12.93;;;19.10;99.90;;;;;;4877153;29;20559;-75
2021/05/27 08:30:26;;;;;;;18.75;12.60;;;19.20;99.90;;;;;;4877245;29;20017;-75
2021/05/27 08:32:52;;;;;;;24.70;12.68;;;19.20;99.90;;;;;;4876942;29;20100;-75
2021/05/27 08:35:18;;;;;;;18.23;12.18;;;19.20;99.90;;;;;;4877408;29;20111;-75
2021/05/27 08:37:44;;;;;;;22.10;12.85;;;19.30;99.90;;;;;;4877558;29;20040;-75
2021/05/27 08:40:10;;;;;;;20.00;13.23;;;19.30;99.90;;;;;;4860336;29;20033;-75
2021/05/27 08:42:36;;;;;;;24.40;13.25;;;19.40;99.90;;;;;;4877333;29;20559;-75
2021/05/27 08:45:07;;;;;;;21.05;13.55;;;19.30;99.90;;;;;;4877049;29;20081;-75
2021/05/27 08:47:33;;;;;;;16.30;11.50;;;19.40;99.90;;;;;;4880720;29;20033;-75
2021/05/27 08:50:00;;;;;;;23.55;12.35;;;19.50;99.90;;;;;;4879336;29;20115;-75
2021/05/27 08:52:25;;;;;;;20.55;12.25;;;19.50;99.90;;;;;;4863757;29;20077;-75
2021/05/27 08:54:51;;;;;;;22.02;12.20;;;19.60;99.90;;;;;;4880241;29;20025;-75
2021/05/27 08:57:17;;;;;;;18.75;12.20;;;19.60;99.90;;;;;;4880593;29;20036;-75
2021/05/27 08:59:42;;;;;;;22.52;12.35;;;19.60;99.90;;;;;;4880329;29;20036;-74
2021/05/27 09:02:10;;;;;;;15.73;10.88;;;19.70;99.90;;;;;;4880331;29;20036;-74
2021/05/27 09:04:38;;;;;;;17.98;11.98;;;19.70;99.90;;;;;;4847368;29;20073;-74
2021/05/27 09:07:05;;;;;;;17.77;11.75;;;19.80;99.30;;;;;;4845059;29;20029;-74
2021/05/27 09:09:58;;;;;;;24.65;12.27;;;19.90;99.90;;;;;;4861592;29;20484;-74
2021/05/27 09:12:27;;;;;;;22.90;11.98;;;20.00;98.80;;;;;;4861402;29;20491;-74
2021/05/27 09:14:53;;;;;;;20.50;13.23;;;20.20;98.80;;;;;;4844975;29;20495;-74
2021/05/27 09:17:19;;;;;;;22.02;11.43;;;20.10;97.60;;;;;;4861383;29;20116;-74
2021/05/27 09:20:04;;;;;;;22.85;10.75;;;20.20;99.20;;;;;;4861534;29;20093;-74
2021/05/27 09:22:30;;;;;;;20.10;11.35;;;20.20;98.20;;;;;;4848766;29;20411;-74
2021/05/27 09:24:56;;;;;;;26.17;12.43;;;20.30;98.60;;;;;;4875673;29;20049;-74
2021/05/27 09:27:45;;;;;;;23.45;12.60;;;20.40;99.50;;;;;;4858168;29;20041;-74
2021/05/27 09:30:15;;;;;;;15.65;10.77;;;20.40;98.40;;;;;;4875808;29;20021;-74
2021/05/27 09:32:46;;;;;;;19.77;12.43;;;20.40;98.40;;;;;;4874747;29;20025;-74
2021/05/27 09:35:13;;;;;;;18.92;11.68;;;20.40;98.50;;;;;;4875416;29;20048;-75
2021/05/27 09:37:51;;;;;;;19.67;13.85;;;20.30;97.60;;;;;;4876211;29;20025;-74
2021/05/27 09:40:38;;;;;;;21.00;12.07;;;20.30;97.60;;;;;;4876164;29;20404;-74
2021/05/27 09:43:06;;;;;;;21.83;12.10;;;20.50;98.90;;;;;;4875216;29;20183;-74
2021/05/27 09:45:34;;;;;;;21.02;12.40;;;20.70;98.90;;;;;;4859405;29;20136;-75
2021/05/27 09:48:20;;;;;;;22.65;12.75;;;20.80;97.90;;;;;;4875118;29;20029;-75
2021/05/27 09:50:46;;;;;;;27.27;13.35;;;20.70;97.30;;;;;;4859177;29;20056;-75
2021/05/27 09:53:20;;;;;;;18.67;12.25;;;20.70;97.80;;;;;;4874500;29;20437;-75
2021/05/27 09:55:47;;;;;;;28.80;12.88;;;20.80;97.90;;;;;;4858001;29;20036;-75
2021/05/27 09:58:15;;;;;;;24.58;13.07;;;20.80;96.70;;;;;;4875594;29;20495;-74
2021/05/27 10:00:43;;;;;;;18.73;10.88;;;20.90;96.40;;;;;;4874852;29;20111;-75
2021/05/27 10:03:33;;;;;;;19.92;11.25;;;21.00;98.20;;;;;;4874636;29;20044;-75
2021/05/27 10:06:04;;;;;;;19.90;11.27;;;21.00;98.70;;;;;;4839633;29;20388;-74
2021/05/27 10:08:49;;;;;;;23.20;12.25;;;21.20;99.20;;;;;;4856136;29;20025;-75
2021/05/27 10:11:20;;;;;;;17.77;11.57;;;21.40;97.50;;;;;;4856045;29;20109;-75
2021/05/27 10:13:46;;;;;;;13.20;9.07;;;21.40;97.10;;;;;;4854915;29;20018;-73
2021/05/27 10:16:25;;;;;;;12.23;8.43;;;21.30;97.40;;;;;;4855092;29;20045;-73
2021/05/27 10:18:55;;;;;;;10.77;7.47;;;21.40;96.10;;;;;;4854888;29;20029;-74
2021/05/27 10:21:25;;;;;;;13.57;8.40;;;21.40;94.60;;;;;;4838875;29;20105;-73
2021/05/27 10:23:52;;;;;;;14.13;9.77;;;21.40;93.20;;;;;;4855459;29;20025;-73
2021/05/27 10:26:18;;;;;;;16.23;9.90;;;21.40;93.80;;;;;;4855194;29;20053;-73
2021/05/27 10:28:52;;;;;;;14.98;10.30;;;21.50;94.30;;;;;;4856076;29;20021;-73
2021/05/27 10:31:22;;;;;;;11.77;8.35;;;21.70;94.30;;;;;;4855463;29;20556;-73
2021/05/27 10:33:49;;;;;;;16.33;9.32;;;22.10;94.60;;;;;;4855575;29;20044;-73
2021/05/27 10:36:15;;;;;;;10.77;8.13;;;22.20;93.30;;;;;;4856675;29;20017;-74
2021/05/27 10:38:44;;;;;;;14.30;8.15;;;22.50;93.00;;;;;;4856281;29;20313;-73
2021/05/27 10:41:14;;;;;;;14.40;7.97;;;22.40;91.00;;;;;;4855741;29;20030;-73
2021/05/27 10:44:00;;;;;;;10.98;7.45;;;22.40;92.80;;;;;;4856602;29;20104;-73
2021/05/27 10:46:27;;;;;;;10.10;7.82;;;22.40;91.60;;;;;;4828001;29;20109;-73
2021/05/27 10:48:54;;;;;;;13.38;7.63;;;22.30;92.50;;;;;;4870786;29;20017;-73
2021/05/27 10:51:35;;;;;;;14.90;9.15;;;22.10;91.80;;;;;;4874393;29;20092;-73
2021/05/27 10:54:06;;;;;;;15.27;9.13;;;22.00;92.40;;;;;;4875071;29;20025;-73
2021/05/27 10:56:34;;;;;;;11.23;8.98;;;21.90;94.10;;;;;;4871280;29;20028;-73
2021/05/27 10:59:01;;;;;;;11.20;9.15;;;22.20;94.60;;;;;;4873888;29;20107;-73
2021/05/27 11:01:34;;;;;;;17.02;9.90;;;22.50;93.70;;;;;;4874370;29;20033;-73
2021/05/27 11:04:00;;;;;;;16.00;9.57;;;22.60;91.60;;;;;;4857627;29;20033;-73
2021/05/27 11:06:42;;;;;;;11.95;6.95;;;22.70;91.90;;;;;;4873847;29;20033;-73
2021/05/27 11:09:16;;;;;;;;;;;22.70;90.90;;;;;;4873641;29;20017;-73
2021/05/27 11:11:52;;;;;;;11.45;6.72;;;22.60;91.30;;;;;;4873469;29;20007;-73
2021/05/27 11:14:35;;;;;;;12.43;8.23;;;22.80;92.70;;;;;;4856992;29;20404;-73
2021/05/27 11:17:01;;;;;;;12.10;7.97;;;22.80;90.40;;;;;;4873837;29;20044;-73
2021/05/27 11:19:46;;;;;;;15.38;9.15;;;22.70;90.70;;;;;;4874384;29;20392;-73
2021/05/27 11:25:20;;;;;;;12.57;7.85;;;23.20;90.60;;;;;;4873662;29;20509;-73
2021/05/27 11:27:49;;;;;;;16.17;8.25;;;23.30;87.60;;;;;;4857488;29;20112;-73
2021/05/27 11:30:22;;;;;;;14.25;7.70;;;23.40;86.60;;;;;;4873626;29;20029;-73
2021/05/27 11:33:02;;;;;;;12.75;7.63;;;23.60;89.90;;;;;;4856445;29;20029;-73
2021/05/27 11:35:50;;;;;;;10.57;7.72;;;23.40;86.40;;;;;;4856611;29;20132;-73
2021/05/27 11:38:19;;;;;;;12.50;7.15;;;23.40;88.50;;;;;;4873514;29;20409;-73
2021/05/27 11:40:48;;;;;;;12.00;7.60;;;23.40;86.90;;;;;;4856830;29;20040;-73
2021/05/27 11:43:16;;;;;;;11.85;8.05;;;23.50;87.70;;;;;;4873239;29;20032;-73
2021/05/27 11:45:47;;;;;;;9.80;7.60;;;23.70;87.70;;;;;;4874205;29;20088;-73
2021/05/27 11:48:22;;;;;;;10.90;8.18;;;23.80;86.90;;;;;;4873451;29;20025;-73
2021/05/27 11:50:49;;;;;;;12.75;7.57;;;24.00;86.20;;;;;;4873593;29;20570;-73
2021/05/27 11:53:19;;;;;;;18.20;8.35;;;24.00;84.20;;;;;;4856494;29;20025;-73
2021/05/27 11:55:56;;;;;;;11.43;7.80;;;24.20;86.00;;;;;;4857561;29;20120;-73
2021/05/27 11:58:38;;;;;;;12.45;7.43;;;24.30;85.10;;;;;;4857305;29;20398;-73
2021/05/27 12:01:14;;;;;;;;;;;24.20;85.30;;;;;;4857628;29;20124;-73
2021/05/27 12:03:40;;;;;;;13.77;7.78;;;24.00;83.80;;;;;;4857423;29;19907;-73
2021/05/27 12:06:06;;;;;;;8.90;6.03;;;23.80;82.10;;;;;;4873059;29;20060;-74
2021/05/27 12:08:41;;;;;;;11.65;6.32;;;23.70;83.50;;;;;;4873465;29;20036;-73
2021/05/27 12:11:07;;;;;;;12.95;7.53;;;23.70;84.90;;;;;;4873584;29;20484;-73
2021/05/27 12:13:32;;;;;;;12.60;8.05;;;23.60;85.90;;;;;;4856869;29;20049;-73
2021/05/27 12:15:58;;;;;;;13.10;9.10;;;23.60;85.60;;;;;;4873106;29;20084;-73
2021/05/27 12:18:24;;;;;;;13.00;9.88;;;23.60;83.90;;;;;;4857416;29;20362;-73
2021/05/27 12:20:50;;;;;;;12.75;9.30;;;23.90;84.40;;;;;;4874203;29;20037;-73
2021/05/27 12:37:05;;;;;;;;;;;25.10;86.70;;;;;;2746391;29;22197;-75
2021/05/27 12:39:32;;;;;;;11.20;7.10;;;25.50;82.30;;;;;;4859569;29;20327;-77
2021/05/27 12:41:59;;;;;;;17.13;9.25;;;25.60;81.10;;;;;;4858881;29;20033;-77
2021/05/27 12:44:42;;;;;;;6.63;5.65;;;25.60;78.90;;;;;;4842825;29;20029;-77
2021/05/27 12:47:25;;;;;;;10.52;6.43;;;25.50;73.10;;;;;;4858760;29;20026;-76
2021/05/27 12:49:53;;;;;;;11.30;7.30;;;25.30;72.70;;;;;;4858148;29;20531;-77
2021/05/27 12:52:44;;;;;;;12.45;6.43;;;25.00;75.80;;;;;;4858526;29;20029;-78
2021/05/27 12:55:11;;;;;;;8.20;5.63;;;24.80;75.60;;;;;;4859361;29;20030;-77
2021/05/27 12:58:09;;;;;;;8.50;5.43;;;24.80;75.40;;;;;;4859018;29;20030;-76
2021/05/27 13:00:48;;;;;;;9.38;5.70;;;25.20;75.40;;;;;;4833907;29;20108;-77